Time;durP1;ratioP1;P1;durP2;ratioP2;P2;SDS_P1;SDS_P2;PMS_P1;PMS_P2;Temp;Humidity;BMP_temperature;BMP_pressure;BME280_temperature;BME280_humidity;BME280_pressure;Samples;Min_cycle;Max_cycle;Signal;HPM_P1;HPM_P2
2024/04/18 00:00:53;;;;;;;2.08;1.30;;;;;;;;;;5344408;26;20005;-52
2024/04/18 00:03:19;;;;;;;2.55;1.50;;;;;;;;;;5345242;26;19993;-51
2024/04/18 00:05:46;;;;;;;4.22;1.30;;;;;;;;;;5345137;26;20021;-51
2024/04/18 00:08:12;;;;;;;16.27;1.90;;;;;;;;;;5369712;26;20000;-51
2024/04/18 00:10:40;;;;;;;2.78;1.10;;;;;;;;;;5378441;26;20007;-52
2024/04/18 00:13:06;;;;;;;4.03;1.20;;;;;;;;;;5349030;26;20000;-53
2024/04/18 00:15:52;;;;;;;3.17;1.15;;;;;;;;;;5366299;26;20396;-51
2024/04/18 00:18:32;;;;;;;2.95;1.70;;;;;;;;;;5346024;26;20001;-51
2024/04/18 00:21:18;;;;;;;2.08;1.58;;;;;;;;;;5344719;26;20071;-51
2024/04/18 00:23:53;;;;;;;2.42;1.42;;;;;;;;;;5345061;26;19997;-51
2024/04/18 00:26:39;;;;;;;2.03;1.33;;;;;;;;;;5375162;26;20369;-51
2024/04/18 00:29:05;;;;;;;2.35;1.33;;;;;;;;;;5346719;26;20040;-52
2024/04/18 00:31:34;;;;;;;1.95;1.13;;;;;;;;;;5359878;26;20012;-51
2024/04/18 00:34:01;;;;;;;4.25;1.20;;;;;;;;;;5345141;26;20263;-52
2024/04/18 00:36:43;;;;;;;2.35;1.15;;;;;;;;;;5346760;26;20549;-53
2024/04/18 00:39:24;;;;;;;2.17;1.40;;;;;;;;;;5350811;26;20782;-51
2024/04/18 00:42:00;;;;;;;4.43;1.48;;;;;;;;;;5377297;26;20016;-51
2024/04/18 00:44:29;;;;;;;2.95;1.58;;;;;;;;;;5345740;26;20008;-53
2024/04/18 00:47:14;;;;;;;2.30;2.10;;;;;;;;;;5355929;26;20087;-51
2024/04/18 00:50:00;;;;;;;9.60;1.65;;;;;;;;;;5355798;26;20016;-51
2024/04/18 00:52:38;;;;;;;1.80;1.50;;;;;;;;;;5355609;26;20008;-51
2024/04/18 00:55:05;;;;;;;5.60;1.40;;;;;;;;;;5354629;26;20008;-54
2024/04/18 00:57:32;;;;;;;4.07;1.95;;;;;;;;;;5345954;26;20220;-52
2024/04/18 01:00:04;;;;;;;3.53;1.52;;;;;;;;;;5379217;26;20475;-51
2024/04/18 01:02:50;;;;;;;3.95;1.90;;;;;;;;;;5379263;26;19996;-51
2024/04/18 01:05:36;;;;;;;11.43;1.80;;;;;;;;;;5348858;26;20003;-52
2024/04/18 01:08:11;;;;;;;6.40;1.80;;;;;;;;;;5351236;26;19996;-51
2024/04/18 01:11:07;;;;;;;4.40;1.85;;;;;;;;;;5340415;26;20012;-52
2024/04/18 01:13:36;;;;;;;1.92;1.70;;;;;;;;;;5346484;26;20008;-51
2024/04/18 01:16:22;;;;;;;3.75;1.40;;;;;;;;;;5362593;26;20518;-51
2024/04/18 01:18:52;;;;;;;3.17;1.40;;;;;;;;;;5316598;26;20099;-51
2024/04/18 01:21:18;;;;;;;2.38;1.30;;;;;;;;;;5313758;26;20001;-51
2024/04/18 01:23:44;;;;;;;5.90;1.70;;;;;;;;;;5374254;26;20003;-52
2024/04/18 01:26:11;;;;;;;2.97;1.90;;;;;;;;;;5347964;26;20348;-51
2024/04/18 01:28:40;;;;;;;3.00;1.90;;;;;;;;;;5356773;26;20009;-51
2024/04/18 01:31:06;;;;;;;4.25;1.55;;;;;;;;;;5348081;26;20007;-51
2024/04/18 01:33:33;;;;;;;2.70;1.90;;;;;;;;;;5369386;26;20001;-52
2024/04/18 01:35:59;;;;;;;3.58;1.50;;;;;;;;;;5366412;26;20449;-52
2024/04/18 01:38:25;;;;;;;3.95;1.50;;;;;;;;;;5378096;26;20415;-51
2024/04/18 01:40:52;;;;;;;3.40;2.13;;;;;;;;;;5379727;26;20461;-51
2024/04/18 01:43:36;;;;;;;5.65;1.73;;;;;;;;;;5365839;26;20016;-51
2024/04/18 01:46:21;;;;;;;3.63;1.65;;;;;;;;;;5369746;26;20016;-51
2024/04/18 01:48:59;;;;;;;3.70;1.65;;;;;;;;;;5372472;26;20000;-51
2024/04/18 01:52:01;;;;;;;1.80;1.60;;;;;;;;;;5348866;26;20016;-51
2024/04/18 01:54:30;;;;;;;2.00;1.30;;;;;;;;;;5351414;26;20351;-51
2024/04/18 01:56:56;;;;;;;2.13;1.88;;;;;;;;;;5349012;26;20049;-52
2024/04/18 01:59:22;;;;;;;3.20;2.00;;;;;;;;;;5366406;26;20436;-52
2024/04/18 02:01:49;;;;;;;2.95;1.95;;;;;;;;;;5347354;26;20341;-51
2024/04/18 02:04:19;;;;;;;4.13;1.87;;;;;;;;;;5372845;26;19997;-51
2024/04/18 02:06:46;;;;;;;4.75;1.60;;;;;;;;;;5346907;26;20247;-51
2024/04/18 02:09:24;;;;;;;3.38;1.70;;;;;;;;;;5362431;26;20414;-52
2024/04/18 02:11:51;;;;;;;5.95;2.05;;;;;;;;;;5379362;26;20085;-52
2024/04/18 02:14:36;;;;;;;2.90;1.95;;;;;;;;;;5351969;26;20041;-51
2024/04/18 02:17:02;;;;;;;3.88;1.80;;;;;;;;;;5336727;26;20011;-52
2024/04/18 02:19:29;;;;;;;1.55;1.45;;;;;;;;;;5288216;26;20380;-51
2024/04/18 02:21:58;;;;;;;4.53;1.77;;;;;;;;;;5379730;26;20015;-51
2024/04/18 02:24:53;;;;;;;2.38;1.63;;;;;;;;;;5380459;26;20015;-52
2024/04/18 02:27:19;;;;;;;4.80;2.00;;;;;;;;;;5311240;26;20024;-51
2024/04/18 02:29:45;;;;;;;2.33;1.63;;;;;;;;;;5360741;26;20024;-51
2024/04/18 02:32:32;;;;;;;5.13;2.13;;;;;;;;;;5379497;26;20405;-51
2024/04/18 02:34:58;;;;;;;2.70;2.00;;;;;;;;;;5378917;26;20020;-52
2024/04/18 02:37:26;;;;;;;4.28;1.90;;;;;;;;;;5350894;26;20007;-51
2024/04/18 02:39:52;;;;;;;2.05;1.85;;;;;;;;;;5379977;26;20003;-51
2024/04/18 02:42:24;;;;;;;2.75;1.75;;;;;;;;;;5379875;26;20024;-51
2024/04/18 02:44:59;;;;;;;2.30;1.85;;;;;;;;;;5320286;26;20024;-53
2024/04/18 02:47:25;;;;;;;4.40;1.90;;;;;;;;;;5380243;26;20015;-51
2024/04/18 02:50:07;;;;;;;2.67;1.92;;;;;;;;;;5378046;26;19996;-51
2024/04/18 02:52:33;;;;;;;3.70;1.80;;;;;;;;;;5331812;26;19996;-52
2024/04/18 02:55:14;;;;;;;2.55;1.73;;;;;;;;;;5342543;26;20013;-52
2024/04/18 02:57:54;;;;;;;2.28;1.67;;;;;;;;;;5346701;26;20008;-51
2024/04/18 03:00:20;;;;;;;2.50;1.87;;;;;;;;;;5318189;26;20039;-51
2024/04/18 03:03:06;;;;;;;2.30;2.00;;;;;;;;;;5378490;26;20421;-51
2024/04/18 03:05:32;;;;;;;3.80;2.35;;;;;;;;;;5350017;26;20345;-51
2024/04/18 03:07:59;;;;;;;4.82;2.08;;;;;;;;;;5328482;26;20042;-51
2024/04/18 03:10:49;;;;;;;3.97;2.08;;;;;;;;;;5379080;26;20550;-51
2024/04/18 03:13:34;;;;;;;2.80;1.85;;;;;;;;;;5365337;26;20000;-52
2024/04/18 03:16:20;;;;;;;4.72;1.67;;;;;;;;;;5355315;26;19996;-51
2024/04/18 03:18:46;;;;;;;3.97;1.90;;;;;;;;;;5381070;26;20606;-51
2024/04/18 03:21:15;;;;;;;4.47;1.73;;;;;;;;;;5338503;26;20001;-52
2024/04/18 03:23:41;;;;;;;5.53;2.10;;;;;;;;;;5315822;26;20004;-51
2024/04/18 03:26:07;;;;;;;2.70;1.73;;;;;;;;;;5346130;26;20012;-51
2024/04/18 03:28:33;;;;;;;3.17;2.13;;;;;;;;;;5345739;26;19997;-50
2024/04/18 03:31:03;;;;;;;1.77;1.67;;;;;;;;;;5353120;26;20009;-51
2024/04/18 03:33:29;;;;;;;2.80;2.00;;;;;;;;;;5345811;26;19997;-51
2024/04/18 03:35:55;;;;;;;5.50;1.90;;;;;;;;;;5362498;26;20004;-51
2024/04/18 03:38:21;;;;;;;4.35;2.20;;;;;;;;;;5380747;26;20000;-50
2024/04/18 03:40:55;;;;;;;3.38;2.00;;;;;;;;;;5380650;26;20011;-51
2024/04/18 03:43:21;;;;;;;6.68;2.00;;;;;;;;;;5377782;26;19996;-52
2024/04/18 03:45:55;;;;;;;2.97;2.17;;;;;;;;;;5344862;26;20004;-51
2024/04/18 03:48:29;;;;;;;5.15;2.05;;;;;;;;;;5346666;26;20079;-53
2024/04/18 03:50:56;;;;;;;4.97;2.25;;;;;;;;;;5350557;26;20005;-50
2024/04/18 03:53:23;;;;;;;3.50;2.10;;;;;;;;;;5380354;26;19992;-45
2024/04/18 03:56:08;;;;;;;3.70;2.17;;;;;;;;;;5380082;26;20091;-45
2024/04/18 03:58:34;;;;;;;7.32;3.00;;;;;;;;;;5380211;26;19996;-50
2024/04/18 04:01:00;;;;;;;4.18;2.97;;;;;;;;;;5376296;26;20488;-51
2024/04/18 04:03:26;;;;;;;2.53;2.20;;;;;;;;;;5378992;26;20345;-53
2024/04/18 04:05:54;;;;;;;6.95;2.20;;;;;;;;;;5378904;26;20011;-55
2024/04/18 04:08:20;;;;;;;2.85;2.22;;;;;;;;;;5349572;26;19992;-50
2024/04/18 04:10:46;;;;;;;6.57;1.95;;;;;;;;;;5379902;26;20803;-51
2024/04/18 04:13:13;;;;;;;4.38;2.50;;;;;;;;;;5380191;26;19992;-53
2024/04/18 04:15:48;;;;;;;8.45;2.22;;;;;;;;;;5348898;26;20087;-51
2024/04/18 04:18:33;;;;;;;2.53;2.28;;;;;;;;;;5380099;26;20091;-53
2024/04/18 04:21:18;;;;;;;4.78;2.25;;;;;;;;;;5379922;26;20069;-51
2024/04/18 04:23:44;;;;;;;4.93;2.60;;;;;;;;;;5378266;26;20000;-51
2024/04/18 04:26:10;;;;;;;6.82;2.70;;;;;;;;;;5380187;26;20246;-51
2024/04/18 04:28:37;;;;;;;4.30;3.00;;;;;;;;;;5378375;26;20406;-51
2024/04/18 04:31:03;;;;;;;4.20;2.47;;;;;;;;;;5379658;26;19996;-51
2024/04/18 04:33:33;;;;;;;4.57;2.97;;;;;;;;;;5379561;26;20015;-54
2024/04/18 04:35:59;;;;;;;;;;;;;;;;;;5380601;26;19996;-55
2024/04/18 04:38:25;;;;;;;6.25;2.92;;;;;;;;;;5349031;26;19925;-53
2024/04/18 04:40:52;;;;;;;3.67;2.53;;;;;;;;;;5379519;26;20016;-51
2024/04/18 04:43:18;;;;;;;7.15;2.72;;;;;;;;;;5380080;26;20448;-52
2024/04/18 04:45:44;;;;;;;3.25;2.67;;;;;;;;;;5349472;26;19996;-51
2024/04/18 04:48:10;;;;;;;8.38;3.60;;;;;;;;;;5379582;26;20453;-52
2024/04/18 04:51:02;;;;;;;5.85;2.70;;;;;;;;;;5353196;26;20007;-52
2024/04/18 04:53:34;;;;;;;4.30;2.75;;;;;;;;;;5378398;26;20000;-54
2024/04/18 04:56:01;;;;;;;3.90;2.40;;;;;;;;;;5348662;26;20032;-51
2024/04/18 04:58:27;;;;;;;7.85;2.28;;;;;;;;;;5379570;26;20009;-52
2024/04/18 05:00:53;;;;;;;4.70;2.73;;;;;;;;;;5377562;26;20330;-54
2024/04/18 05:03:35;;;;;;;3.50;2.70;;;;;;;;;;5378032;26;19992;-52
2024/04/18 05:06:20;;;;;;;3.85;2.38;;;;;;;;;;5379424;26;20011;-52
2024/04/18 05:09:08;;;;;;;3.28;2.92;;;;;;;;;;5379430;26;19992;-52
2024/04/18 05:11:34;;;;;;;;;;;;;;;;;;5378472;26;20066;-51
2024/04/18 05:14:00;;;;;;;5.03;2.80;;;;;;;;;;5380998;26;19932;-52
2024/04/18 05:16:45;;;;;;;4.75;3.25;;;;;;;;;;5382699;26;20007;-52
2024/04/18 05:19:11;;;;;;;4.97;2.83;;;;;;;;;;5382348;26;20000;-51
2024/04/18 05:21:38;;;;;;;5.18;2.88;;;;;;;;;;5351885;26;19996;-51
2024/04/18 05:24:23;;;;;;;4.65;3.08;;;;;;;;;;5382977;26;20058;-51
2024/04/18 05:26:49;;;;;;;4.57;2.55;;;;;;;;;;5351637;26;20016;-52
2024/04/18 05:32:02;;;;;;;5.40;2.83;;;;;;;;;;5382541;26;20003;-52
2024/04/18 05:34:32;;;;;;;12.48;9.85;;;;;;;;;;5382411;26;20003;-55
2024/04/18 05:36:58;;;;;;;5.97;3.33;;;;;;;;;;5382154;26;20073;-56
2024/04/18 05:39:24;;;;;;;5.03;3.43;;;;;;;;;;5351619;26;20000;-53
2024/04/18 05:41:50;;;;;;;6.90;3.45;;;;;;;;;;5382249;26;20024;-53
2024/04/18 05:44:39;;;;;;;12.73;6.18;;;;;;;;;;5381360;26;20469;-54
2024/04/18 05:47:06;;;;;;;7.60;4.43;;;;;;;;;;5380446;26;20423;-52
2024/04/18 05:49:32;;;;;;;5.80;3.20;;;;;;;;;;5351040;26;20003;-52
2024/04/18 05:52:00;;;;;;;5.72;3.38;;;;;;;;;;5380655;26;20336;-54
2024/04/18 05:54:30;;;;;;;7.97;3.33;;;;;;;;;;5382122;26;19996;-55
2024/04/18 05:57:08;;;;;;;6.20;2.75;;;;;;;;;;5380625;26;20025;-52
2024/04/18 05:59:50;;;;;;;5.75;2.53;;;;;;;;;;5380186;26;20016;-55
2024/04/18 06:02:16;;;;;;;;;;;;;;;;;;5351946;26;20000;-51
2024/04/18 06:04:42;;;;;;;5.15;2.75;;;;;;;;;;5380717;26;19933;-52
2024/04/18 06:07:27;;;;;;;4.68;2.70;;;;;;;;;;5381905;26;20003;-52
2024/04/18 06:09:53;;;;;;;9.73;3.33;;;;;;;;;;5381892;26;20065;-53
2024/04/18 06:12:19;;;;;;;6.32;4.38;;;;;;;;;;5382072;26;20073;-54
2024/04/18 06:14:46;;;;;;;8.52;3.08;;;;;;;;;;5381910;26;20442;-55
2024/04/18 06:17:12;;;;;;;6.37;3.03;;;;;;;;;;5351280;26;19996;-54
2024/04/18 06:19:53;;;;;;;4.10;3.28;;;;;;;;;;5381664;26;20028;-55
2024/04/18 06:22:31;;;;;;;5.82;2.90;;;;;;;;;;5382058;26;20451;-53
2024/04/18 06:25:17;;;;;;;8.63;4.43;;;;;;;;;;5380811;26;20068;-51
2024/04/18 06:27:44;;;;;;;6.60;3.85;;;;;;;;;;5350649;26;20004;-54
2024/04/18 06:30:10;;;;;;;8.10;5.10;;;;;;;;;;5381189;26;20000;-56
2024/04/18 06:32:39;;;;;;;4.70;3.65;;;;;;;;;;5381786;26;19996;-52
2024/04/18 06:35:05;;;;;;;6.53;3.55;;;;;;;;;;5381734;26;19992;-53
2024/04/18 06:37:32;;;;;;;7.75;3.80;;;;;;;;;;5381423;26;20020;-54
2024/04/18 06:40:00;;;;;;;4.70;3.28;;;;;;;;;;5350772;26;20008;-54
2024/04/18 06:42:26;;;;;;;3.65;2.90;;;;;;;;;;5379737;26;20070;-53
2024/04/18 06:44:52;;;;;;;4.32;3.05;;;;;;;;;;5381278;26;20337;-54
2024/04/18 06:47:18;;;;;;;4.13;3.35;;;;;;;;;;5381675;26;20077;-51
2024/04/18 06:50:04;;;;;;;3.85;2.70;;;;;;;;;;5381106;26;20042;-52
2024/04/18 06:52:30;;;;;;;;;;;;;;;;;;5382365;26;20000;-51
2024/04/18 06:54:57;;;;;;;5.32;2.50;;;;;;;;;;5381348;26;19925;-51
2024/04/18 06:57:41;;;;;;;4.45;2.80;;;;;;;;;;5350583;26;20032;-52
2024/04/18 07:00:09;;;;;;;3.88;2.45;;;;;;;;;;5381192;26;20007;-51
2024/04/18 07:02:35;;;;;;;6.03;2.17;;;;;;;;;;5350678;26;20000;-51
2024/04/18 07:05:20;;;;;;;3.88;2.20;;;;;;;;;;5381728;26;20459;-52
2024/04/18 07:07:47;;;;;;;;;;;;;;;;;;5382193;26;20381;-52
2024/04/18 07:10:31;;;;;;;4.32;2.40;;;;;;;;;;5350159;26;19932;-52
2024/04/18 07:12:57;;;;;;;6.50;2.67;;;;;;;;;;5381189;26;20028;-52
2024/04/18 07:15:24;;;;;;;2.33;1.95;;;;;;;;;;5381394;26;20024;-52
2024/04/18 07:18:08;;;;;;;1.75;1.02;;;;;;;;;;5380827;26;20518;-52
2024/04/18 07:20:35;;;;;;;2.08;1.25;;;;;;;;;;5380511;26;20075;-52
2024/04/18 07:23:07;;;;;;;2.35;1.35;;;;;;;;;;5381207;26;20070;-51
2024/04/18 07:25:33;;;;;;;3.27;1.00;;;;;;;;;;5350050;26;19996;-53
2024/04/18 07:27:59;;;;;;;1.30;0.80;;;;;;;;;;5350248;26;19996;-52
2024/04/18 07:30:25;;;;;;;5.70;1.73;;;;;;;;;;5380902;26;20069;-52
2024/04/18 07:32:51;;;;;;;1.10;1.00;;;;;;;;;;5380750;26;19992;-53
2024/04/18 07:35:38;;;;;;;0.95;0.80;;;;;;;;;;5380584;26;20004;-57
2024/04/18 07:38:05;;;;;;;0.75;0.60;;;;;;;;;;5379040;26;20065;-52
2024/04/18 07:40:31;;;;;;;0.80;0.45;;;;;;;;;;5380386;26;20463;-57
2024/04/18 07:42:58;;;;;;;0.77;0.50;;;;;;;;;;5380874;26;20000;-54
2024/04/18 07:45:24;;;;;;;0.70;0.50;;;;;;;;;;5380595;26;20043;-54
2024/04/18 07:47:50;;;;;;;0.43;0.35;;;;;;;;;;5380919;26;19992;-52
2024/04/18 07:50:17;;;;;;;1.58;0.38;;;;;;;;;;5380466;26;20008;-53
2024/04/18 07:52:43;;;;;;;0.40;0.33;;;;;;;;;;5380517;26;20098;-54
2024/04/18 07:55:11;;;;;;;0.30;0.30;;;;;;;;;;5379067;26;20000;-56
2024/04/18 07:57:37;;;;;;;2.05;0.40;;;;;;;;;;5380482;26;20000;-56
2024/04/18 08:00:03;;;;;;;1.75;0.75;;;;;;;;;;5380207;26;19996;-54
2024/04/18 08:02:37;;;;;;;1.98;0.57;;;;;;;;;;5351437;26;20015;-56
2024/04/18 08:05:04;;;;;;;0.43;0.20;;;;;;;;;;5380173;26;20341;-53
2024/04/18 08:07:30;;;;;;;1.57;0.30;;;;;;;;;;5380420;26;20131;-52
2024/04/18 08:09:56;;;;;;;0.77;0.30;;;;;;;;;;5380016;26;20463;-54
2024/04/18 08:12:22;;;;;;;0.57;0.30;;;;;;;;;;5380235;26;20457;-52
2024/04/18 08:14:48;;;;;;;0.63;0.32;;;;;;;;;;5380328;26;20452;-54
2024/04/18 08:17:14;;;;;;;2.28;0.30;;;;;;;;;;5380366;26;20477;-52
2024/04/18 08:19:41;;;;;;;2.93;0.40;;;;;;;;;;5379951;26;20002;-51
2024/04/18 08:22:07;;;;;;;0.52;0.40;;;;;;;;;;5380337;26;20016;-52
2024/04/18 08:24:35;;;;;;;0.30;0.22;;;;;;;;;;5380251;26;20507;-51
2024/04/18 08:27:07;;;;;;;1.73;0.28;;;;;;;;;;5380220;26;20065;-53
2024/04/18 08:29:34;;;;;;;0.80;0.57;;;;;;;;;;5349204;26;19993;-55
2024/04/18 08:32:00;;;;;;;2.45;0.20;;;;;;;;;;5349229;26;20329;-53
2024/04/18 08:34:26;;;;;;;0.65;0.55;;;;;;;;;;5349300;26;20004;-52
2024/04/18 08:36:52;;;;;;;5.70;0.30;;;;;;;;;;5379775;26;20008;-51
2024/04/18 08:39:18;;;;;;;2.38;0.63;;;;;;;;;;5379766;26;20000;-53
2024/04/18 08:41:44;;;;;;;0.65;0.30;;;;;;;;;;5379994;26;19996;-56
2024/04/18 08:44:11;;;;;;;0.65;0.32;;;;;;;;;;5378099;26;20345;-51
2024/04/18 08:46:38;;;;;;;0.50;0.20;;;;;;;;;;5379567;26;20004;-54
2024/04/18 08:49:11;;;;;;;0.93;0.30;;;;;;;;;;5379137;26;20368;-53
2024/04/18 08:51:38;;;;;;;10.60;0.82;;;;;;;;;;5383373;26;20230;-52
2024/04/18 08:54:07;;;;;;;0.32;0.22;;;;;;;;;;5382921;26;20008;-54
2024/04/18 08:56:35;;;;;;;0.15;0.15;;;;;;;;;;5383060;26;19996;-52
2024/04/18 08:59:02;;;;;;;0.20;0.20;;;;;;;;;;5382706;26;20011;-54
2024/04/18 09:01:28;;;;;;;0.52;0.30;;;;;;;;;;5383040;26;20118;-53
2024/04/18 09:03:55;;;;;;;0.17;0.17;;;;;;;;;;5383179;26;20003;-55
2024/04/18 09:06:22;;;;;;;0.90;0.40;;;;;;;;;;5382673;26;20000;-54
2024/04/18 09:08:52;;;;;;;0.63;0.35;;;;;;;;;;5383086;26;20000;-51
2024/04/18 09:11:19;;;;;;;0.20;0.20;;;;;;;;;;5383254;26;19996;-53
2024/04/18 09:13:46;;;;;;;0.32;0.30;;;;;;;;;;5382853;26;19999;-54
2024/04/18 09:16:13;;;;;;;0.55;0.20;;;;;;;;;;5382877;26;20007;-53
2024/04/18 09:18:39;;;;;;;0.47;0.20;;;;;;;;;;5382697;26;20008;-52
2024/04/18 09:21:12;;;;;;;0.20;0.20;;;;;;;;;;5382764;26;20000;-52
2024/04/18 09:23:40;;;;;;;0.35;0.30;;;;;;;;;;5382577;26;20369;-53
2024/04/18 09:26:06;;;;;;;1.55;0.20;;;;;;;;;;5351387;26;20004;-54
2024/04/18 09:28:38;;;;;;;0.40;0.40;;;;;;;;;;5382810;26;20008;-53
2024/04/18 09:31:04;;;;;;;5.57;0.40;;;;;;;;;;5382259;26;20000;-51
2024/04/18 09:33:35;;;;;;;0.20;0.20;;;;;;;;;;5382721;26;20000;-51
2024/04/18 09:36:02;;;;;;;2.35;0.40;;;;;;;;;;5382552;26;20001;-52
2024/04/18 09:38:31;;;;;;;0.70;0.50;;;;;;;;;;5382729;26;20000;-51
2024/04/18 09:41:01;;;;;;;2.40;0.30;;;;;;;;;;5382001;26;20449;-55
2024/04/18 09:43:31;;;;;;;0.30;0.30;;;;;;;;;;5382557;26;20538;-51
2024/04/18 09:46:03;;;;;;;0.70;0.25;;;;;;;;;;5382259;26;20008;-53
2024/04/18 09:48:30;;;;;;;1.08;0.30;;;;;;;;;;5382402;26;20073;-53
2024/04/18 09:50:56;;;;;;;0.10;0.10;;;;;;;;;;5382185;26;20066;-51
2024/04/18 09:53:23;;;;;;;1.98;0.20;;;;;;;;;;5382534;26;20364;-51
2024/04/18 09:55:50;;;;;;;0.10;0.10;;;;;;;;;;5382193;26;20015;-57
2024/04/18 09:58:23;;;;;;;2.78;0.60;;;;;;;;;;5382096;26;20000;-52
2024/04/18 10:00:49;;;;;;;1.58;0.38;;;;;;;;;;5380707;26;20538;-53
2024/04/18 10:03:16;;;;;;;0.20;0.20;;;;;;;;;;5382077;26;19993;-52
2024/04/18 10:05:49;;;;;;;0.82;0.20;;;;;;;;;;5382132;26;20242;-52
2024/04/18 10:08:17;;;;;;;0.50;0.30;;;;;;;;;;5382307;26;19996;-51
2024/04/18 10:10:44;;;;;;;0.85;0.65;;;;;;;;;;5381477;26;20004;-52
2024/04/18 10:13:10;;;;;;;1.02;0.50;;;;;;;;;;5382195;26;20008;-51
2024/04/18 10:15:36;;;;;;;0.57;0.50;;;;;;;;;;5350927;26;19996;-51
2024/04/18 10:18:12;;;;;;;0.40;0.30;;;;;;;;;;5368755;26;20004;-52
2024/04/18 10:20:42;;;;;;;1.08;0.40;;;;;;;;;;5320272;26;20001;-52
2024/04/18 10:23:11;;;;;;;0.60;0.40;;;;;;;;;;5354627;26;20004;-54
2024/04/18 10:25:43;;;;;;;1.80;0.50;;;;;;;;;;5368674;26;20408;-53
2024/04/18 10:28:17;;;;;;;1.42;0.30;;;;;;;;;;5333893;26;20001;-56
2024/04/18 10:30:43;;;;;;;2.13;0.30;;;;;;;;;;5350023;26;20032;-52
2024/04/18 10:33:09;;;;;;;0.85;0.85;;;;;;;;;;5362860;26;20016;-52
2024/04/18 10:35:35;;;;;;;0.50;0.20;;;;;;;;;;5320667;26;20433;-53
2024/04/18 10:38:03;;;;;;;0.33;0.33;;;;;;;;;;5318084;26;20067;-57
2024/04/18 10:40:31;;;;;;;0.52;0.45;;;;;;;;;;5359849;26;19993;-51
2024/04/18 10:43:13;;;;;;;0.55;0.47;;;;;;;;;;5335924;26;20078;-54
2024/04/18 10:45:41;;;;;;;0.60;0.38;;;;;;;;;;5369552;26;20441;-52
2024/04/18 10:48:07;;;;;;;0.43;0.30;;;;;;;;;;5346254;26;20445;-51
2024/04/18 10:50:38;;;;;;;0.20;0.20;;;;;;;;;;5352934;26;19996;-52
2024/04/18 10:53:04;;;;;;;1.55;0.38;;;;;;;;;;5346183;26;20000;-54
2024/04/18 10:55:32;;;;;;;0.30;0.30;;;;;;;;;;5323448;26;20041;-53
2024/04/18 10:57:59;;;;;;;0.20;0.20;;;;;;;;;;5313886;26;20008;-53
2024/04/18 11:00:27;;;;;;;2.40;0.43;;;;;;;;;;5331088;26;20027;-54
2024/04/18 11:02:57;;;;;;;0.40;0.35;;;;;;;;;;5372496;26;20004;-54
2024/04/18 11:05:23;;;;;;;0.65;0.40;;;;;;;;;;5376924;26;20000;-56
2024/04/18 11:07:55;;;;;;;2.72;0.50;;;;;;;;;;5373758;26;20595;-55
2024/04/18 11:10:27;;;;;;;0.45;0.45;;;;;;;;;;5365858;26;20004;-52
2024/04/18 11:12:56;;;;;;;2.05;0.52;;;;;;;;;;5348954;26;20005;-51
2024/04/18 11:15:23;;;;;;;1.67;0.45;;;;;;;;;;5376377;26;20000;-55
2024/04/18 11:17:49;;;;;;;1.27;0.40;;;;;;;;;;5347117;26;20001;-52
2024/04/18 11:20:16;;;;;;;1.65;0.60;;;;;;;;;;5345078;26;20458;-55
2024/04/18 11:22:42;;;;;;;1.87;0.30;;;;;;;;;;5375320;26;20015;-52
2024/04/18 11:25:08;;;;;;;0.40;0.40;;;;;;;;;;5372772;26;20024;-52
2024/04/18 11:27:38;;;;;;;0.77;0.40;;;;;;;;;;5377429;26;20452;-55
2024/04/18 11:30:06;;;;;;;0.93;0.30;;;;;;;;;;5378863;26;20653;-51
2024/04/18 11:32:32;;;;;;;0.20;0.17;;;;;;;;;;5334894;26;20065;-51
2024/04/18 11:34:59;;;;;;;1.75;0.40;;;;;;;;;;5380251;26;19996;-52
2024/04/18 11:37:25;;;;;;;1.88;0.40;;;;;;;;;;5374439;26;20015;-53
2024/04/18 11:39:55;;;;;;;0.70;0.40;;;;;;;;;;5377134;26;20004;-49
2024/04/18 11:42:21;;;;;;;1.90;0.20;;;;;;;;;;5362581;26;20009;-50
2024/04/18 11:44:47;;;;;;;1.27;0.32;;;;;;;;;;5344703;26;20001;-50
2024/04/18 11:47:14;;;;;;;0.50;0.17;;;;;;;;;;5361327;26;20465;-50
2024/04/18 11:49:42;;;;;;;3.75;0.85;;;;;;;;;;5345210;26;20360;-53
2024/04/18 11:52:08;;;;;;;0.30;0.30;;;;;;;;;;5347559;26;20507;-53
2024/04/18 11:54:34;;;;;;;0.83;0.30;;;;;;;;;;5345912;26;19993;-51
2024/04/18 11:57:00;;;;;;;0.20;0.20;;;;;;;;;;5367925;26;20347;-51
2024/04/18 11:59:33;;;;;;;3.08;0.57;;;;;;;;;;5347829;26;20015;-52
2024/04/18 12:01:59;;;;;;;0.45;0.30;;;;;;;;;;5351891;26;20005;-52
2024/04/18 12:04:25;;;;;;;1.60;0.30;;;;;;;;;;5345035;26;20009;-51
2024/04/18 12:06:52;;;;;;;2.50;0.73;;;;;;;;;;5371600;26;20015;-53
2024/04/18 12:09:27;;;;;;;4.38;0.30;;;;;;;;;;5334479;26;20074;-54
2024/04/18 12:11:58;;;;;;;0.98;0.43;;;;;;;;;;5316526;26;20005;-51
2024/04/18 12:14:24;;;;;;;;;;;;;;;;;;5344037;26;20082;-54
2024/04/18 12:16:54;;;;;;;0.20;0.20;;;;;;;;;;5368894;26;19999;-53
2024/04/18 12:19:39;;;;;;;0.50;0.30;;;;;;;;;;5360049;26;20000;-53
2024/04/18 12:22:10;;;;;;;0.50;0.50;;;;;;;;;;5379606;26;19999;-49
2024/04/18 12:24:37;;;;;;;0.80;0.30;;;;;;;;;;5347784;26;20001;-50
2024/04/18 12:27:09;;;;;;;0.32;0.20;;;;;;;;;;5344369;26;20009;-52
2024/04/18 12:29:52;;;;;;;2.38;0.30;;;;;;;;;;5318119;26;20078;-50
2024/04/18 12:32:22;;;;;;;0.20;0.20;;;;;;;;;;5356922;26;20023;-54
2024/04/18 12:34:52;;;;;;;0.20;0.20;;;;;;;;;;5378930;26;20468;-54
2024/04/18 12:37:18;;;;;;;1.65;0.30;;;;;;;;;;5378175;26;20008;-53
2024/04/18 12:39:47;;;;;;;0.20;0.20;;;;;;;;;;5377789;26;19996;-50
2024/04/18 12:42:26;;;;;;;0.43;0.30;;;;;;;;;;5331672;26;20011;-54
2024/04/18 12:44:52;;;;;;;2.80;0.30;;;;;;;;;;5315802;26;20000;-51
2024/04/18 12:47:21;;;;;;;0.70;0.30;;;;;;;;;;5335047;26;20508;-50
2024/04/18 12:49:48;;;;;;;1.73;0.23;;;;;;;;;;5338191;26;20459;-50
2024/04/18 12:52:15;;;;;;;1.85;0.30;;;;;;;;;;5375198;26;20011;-50
2024/04/18 12:54:42;;;;;;;;;;;;;;;;;;5313802;26;20349;-50
2024/04/18 12:57:20;;;;;;;0.43;0.25;;;;;;;;;;5343697;26;19933;-50
2024/04/18 13:00:12;;;;;;;1.50;0.30;;;;;;;;;;5349405;26;20011;-52
2024/04/18 13:02:58;;;;;;;0.28;0.28;;;;;;;;;;5331085;26;20014;-50
2024/04/18 13:05:36;;;;;;;0.43;0.28;;;;;;;;;;5364324;26;20004;-54
2024/04/18 13:08:03;;;;;;;0.32;0.30;;;;;;;;;;5337252;26;20005;-54
2024/04/18 13:10:49;;;;;;;0.43;0.30;;;;;;;;;;5372898;26;20012;-54
2024/04/18 13:13:24;;;;;;;0.60;0.28;;;;;;;;;;5335547;26;20450;-51
2024/04/18 13:16:16;;;;;;;0.63;0.38;;;;;;;;;;5362043;26;20001;-54
2024/04/18 13:19:02;;;;;;;0.22;0.22;;;;;;;;;;5342433;26;19989;-52
2024/04/18 13:21:38;;;;;;;2.15;0.50;;;;;;;;;;5344354;26;20523;-47
2024/04/18 13:24:08;;;;;;;0.65;0.60;;;;;;;;;;5351383;26;20046;-50
2024/04/18 13:26:50;;;;;;;0.45;0.45;;;;;;;;;;5365334;26;20019;-53
2024/04/18 13:29:17;;;;;;;15.57;1.88;;;;;;;;;;5346184;26;20079;-50
2024/04/18 13:31:48;;;;;;;0.63;0.43;;;;;;;;;;5367371;26;19996;-49
2024/04/18 13:34:17;;;;;;;0.68;0.35;;;;;;;;;;5364609;26;20480;-53
2024/04/18 13:36:43;;;;;;;2.27;0.50;;;;;;;;;;5364538;26;20014;-50
2024/04/18 13:39:10;;;;;;;0.80;0.30;;;;;;;;;;5320549;26;20000;-51
2024/04/18 13:41:40;;;;;;;0.43;0.40;;;;;;;;;;5349812;26;20230;-50
2024/04/18 13:44:16;;;;;;;3.28;1.60;;;;;;;;;;5380816;26;20032;-53
2024/04/18 13:46:46;;;;;;;3.45;1.85;;;;;;;;;;5350677;26;20011;-50
2024/04/18 13:49:32;;;;;;;0.90;0.70;;;;;;;;;;5380094;26;20352;-54
2024/04/18 13:51:58;;;;;;;1.92;0.70;;;;;;;;;;5378980;26;20016;-56
2024/04/18 13:54:31;;;;;;;2.35;1.48;;;;;;;;;;5343770;26;20020;-51
2024/04/18 13:56:57;;;;;;;4.93;2.83;;;;;;;;;;5346684;26;19993;-49
2024/04/18 13:59:42;;;;;;;4.80;2.85;;;;;;;;;;5347120;26;19997;-53
2024/04/18 14:02:27;;;;;;;6.93;2.20;;;;;;;;;;5346947;26;20420;-51
2024/04/18 14:05:23;;;;;;;3.38;0.60;;;;;;;;;;5316092;26;20363;-51
2024/04/18 14:08:01;;;;;;;;;;;;;;;;;;5317346;26;20441;-53
2024/04/18 14:10:27;;;;;;;0.65;0.52;;;;;;;;;;5346968;26;19934;-53
2024/04/18 14:13:12;;;;;;;2.88;0.60;;;;;;;;;;5347079;26;20011;-54
2024/04/18 14:18:52;;;;;;;0.70;0.40;;;;;;;;;;5346759;26;20349;-50
2024/04/18 14:21:33;;;;;;;5.28;0.50;;;;;;;;;;5347348;26;19997;-50
2024/04/18 14:23:59;;;;;;;3.35;0.60;;;;;;;;;;5316916;26;20489;-53
2024/04/18 14:26:26;;;;;;;2.30;0.60;;;;;;;;;;5346710;26;20001;-51
2024/04/18 14:28:52;;;;;;;6.85;3.08;;;;;;;;;;5346540;26;19998;-50
2024/04/18 14:31:18;;;;;;;6.22;2.55;;;;;;;;;;5346814;26;20005;-53
2024/04/18 14:33:45;;;;;;;0.60;0.60;;;;;;;;;;5315981;26;20003;-52
2024/04/18 14:36:11;;;;;;;2.87;1.57;;;;;;;;;;5344809;26;20063;-50
2024/04/18 14:38:38;;;;;;;0.32;0.32;;;;;;;;;;5344817;26;20070;-50
2024/04/18 14:41:04;;;;;;;1.08;0.68;;;;;;;;;;5346828;26;19996;-49
2024/04/18 14:43:30;;;;;;;1.93;1.23;;;;;;;;;;5346597;26;20005;-50
2024/04/18 14:45:57;;;;;;;0.40;0.40;;;;;;;;;;5345783;26;20362;-52
2024/04/18 14:48:44;;;;;;;1.20;0.57;;;;;;;;;;5321296;26;19997;-49
2024/04/18 14:51:10;;;;;;;1.63;0.77;;;;;;;;;;5346397;26;20011;-50
2024/04/18 14:53:45;;;;;;;0.47;0.47;;;;;;;;;;5346733;26;20338;-49
2024/04/18 14:56:11;;;;;;;1.30;0.85;;;;;;;;;;5316431;26;20001;-51
2024/04/18 14:58:58;;;;;;;0.50;0.50;;;;;;;;;;5344709;26;20004;-50
2024/04/18 15:01:24;;;;;;;0.75;0.43;;;;;;;;;;5346649;26;20005;-52
2024/04/18 15:03:50;;;;;;;1.23;0.75;;;;;;;;;;5346201;26;19997;-54
2024/04/18 15:06:17;;;;;;;0.63;0.53;;;;;;;;;;5341354;26;20019;-50
2024/04/18 15:09:04;;;;;;;0.63;0.50;;;;;;;;;;5318253;26;20066;-50
2024/04/18 15:11:30;;;;;;;0.40;0.40;;;;;;;;;;5314631;26;19996;-53
2024/04/18 15:14:06;;;;;;;4.35;1.77;;;;;;;;;;5344987;26;20008;-49